Pagrindinis puslapis
METAR-TAF:

METAR-TAF

Oro uostai :

Kantas, Vietnamas

platuma: 10-05-07N, ilguma: 105-42-43E, Aukštis: 3 m

Dabartinis oras

Ataskaita buvo paskelbta 25 minutes, ne 04:00 UTC
Vėjas 11 kt iš Rytų
Temperatūra 31°C
Drėgmė 63%
Slėgis 1012 hPa
Matomumas 10 km arba daugiau
Išsisklaidę debesys ne aukštis 1500 ft

METAR: VVCT 290400Z 09011KT 9999 SCT015 31/23 Q1012 NOSIG

Laikas: 11:25 (04:25 UTC)

Prognozė

Ataskaita buvo paskelbta 5 valandos ir 25 minutes, ne 23:00 UTC
Prognozė galioja nuo 29 metu 00 UTC su 29 metu 24 UTC
Vėjas 8 kt iš Pietų/Pietryčių
Matomumas 10 km arba daugiau
Išsisklaidę debesys ne aukštis 1700 ft

TAF: VVCT 282300Z 2900/2924 15008KT 9999 SCT017

Orai ataskaitas ir orų prognozės (METAR, TAF).

turimą stotys yra geltonos ir raudonos taškus žemėlapyje.

Perkelti pele per norėdami pamatyti stoties vardą.

Tada spustelėkite, norėdami matyti oro stebėjimo ir prognozės.

Norėdami pakeisti žemėlapį: spustelėkite ant žalios mygtukų su juodo kryžiaus žemyn,; žalią mygtuką su brūkšneliu, jei norite nutolinti; arba žalių rodyklių gretimoms žemėlapius.


METAR-TAF: